createdAt,value
2019-03-30T00:00:02.436Z,99048.84
2019-03-30T00:02:35.492Z,99049.69
2019-03-30T00:05:06.106Z,99047.02
2019-03-30T00:07:37.360Z,99041.75
2019-03-30T00:10:08.436Z,99041.02
2019-03-30T00:12:41.295Z,99037.66
2019-03-30T00:15:11.778Z,99032.08
2019-03-30T00:17:42.019Z,99028.99
2019-03-30T00:20:13.259Z,99022.48
2019-03-30T00:22:43.803Z,99028.93
2019-03-30T00:25:14.845Z,99020.73
2019-03-30T00:27:45.515Z,99015.91
2019-03-30T00:30:19.024Z,99018.52
2019-03-30T00:32:48.518Z,99023.11
2019-03-30T00:35:19.202Z,99018.77
2019-03-30T00:37:50.411Z,99013.87
2019-03-30T00:40:21.616Z,99023.30
2019-03-30T00:42:52.042Z,99026.63
2019-03-30T00:45:22.584Z,99033.45
2019-03-30T00:47:52.927Z,99030.61
2019-03-30T00:50:23.229Z,99027.94
2019-03-30T00:52:54.035Z,99031.75
2019-03-30T00:55:24.578Z,99033.43
2019-03-30T00:57:55.079Z,99038.19
2019-03-30T01:00:25.598Z,99032.92
2019-03-30T01:02:56.391Z,99039.27
2019-03-30T01:05:27.262Z,99036.59
2019-03-30T01:07:58.023Z,99023.97
2019-03-30T01:10:28.511Z,99030.87
2019-03-30T01:12:59.241Z,99024.29
2019-03-30T01:15:29.995Z,99034.70
2019-03-30T01:18:01.006Z,99028.13
2019-03-30T01:20:31.636Z,99031.56
2019-03-30T01:23:02.682Z,99033.23
2019-03-30T01:25:33.489Z,99032.72
2019-03-30T01:28:04.105Z,99032.34
2019-03-30T01:30:34.638Z,99028.88
2019-03-30T01:33:05.308Z,99022.81
2019-03-30T01:35:35.841Z,99026.66
2019-03-30T01:38:06.273Z,99019.31
2019-03-30T01:40:37.036Z,99017.09
2019-03-30T01:43:07.841Z,99022.68
2019-03-30T01:45:38.382Z,99009.28
2019-03-30T01:48:09.101Z,99008.90
2019-03-30T01:50:39.897Z,99007.12
2019-03-30T01:53:10.368Z,99011.34
2019-03-30T01:55:40.881Z,99014.01
2019-03-30T01:58:11.512Z,99016.10
2019-03-30T02:00:42.491Z,99012.57
2019-03-30T02:03:13.308Z,99011.98
2019-03-30T02:05:44.446Z,99012.44
2019-03-30T02:08:15.075Z,99008.97
2019-03-30T02:10:46.387Z,99004.61
2019-03-30T02:13:16.993Z,99013.29
2019-03-30T02:15:47.482Z,99007.98
2019-03-30T02:18:17.971Z,99004.86
2019-03-30T02:20:48.911Z,99003.55
2019-03-30T02:23:19.610Z,99004.41
2019-03-30T02:25:50.169Z,99011.68
2019-03-30T02:28:20.880Z,99005.55
2019-03-30T02:30:51.994Z,99015.14
2019-03-30T02:33:22.783Z,99011.61
2019-03-30T02:35:53.319Z,99005.09
2019-03-30T02:38:23.867Z,99005.95
2019-03-30T02:40:54.545Z,98992.45
2019-03-30T02:43:25.222Z,98983.39
2019-03-30T02:45:55.697Z,98990.22
2019-03-30T02:48:26.418Z,98985.48
2019-03-30T02:50:56.858Z,98979.41
2019-03-30T02:53:27.659Z,98976.73
2019-03-30T02:55:58.497Z,98978.04
2019-03-30T02:58:29.117Z,98986.23
2019-03-30T03:00:59.879Z,98985.79
2019-03-30T03:03:31.235Z,98977.11
2019-03-30T03:06:01.841Z,98976.80
2019-03-30T03:08:32.320Z,98969.92
2019-03-30T03:11:02.907Z,98962.95
2019-03-30T03:13:33.499Z,98961.24
2019-03-30T03:16:04.126Z,98970.77
2019-03-30T03:18:35.045Z,98978.97
2019-03-30T03:21:08.517Z,98976.29
2019-03-30T03:23:39.054Z,98980.20
2019-03-30T03:26:10.075Z,98976.22
2019-03-30T03:28:40.777Z,98993.06
2019-03-30T03:31:11.933Z,98991.31
2019-03-30T03:33:42.768Z,98996.08
2019-03-30T03:36:13.469Z,99000.80
2019-03-30T03:38:44.029Z,98997.45
2019-03-30T03:41:14.889Z,98987.02
2019-03-30T03:43:45.655Z,99010.55
2019-03-30T03:46:16.335Z,99005.95
2019-03-30T03:48:47.015Z,99023.78
2019-03-30T03:51:26.294Z,99021.96
2019-03-30T03:53:52.224Z,99022.10
2019-03-30T03:56:23.416Z,99023.47
2019-03-30T03:58:56.093Z,99031.22
2019-03-30T04:01:27.673Z,99025.09
2019-03-30T04:04:00.016Z,99022.79
2019-03-30T04:06:32.502Z,99020.52
2019-03-30T04:09:04.856Z,99019.98
2019-03-30T04:11:37.915Z,99021.66
2019-03-30T04:14:09.649Z,99020.05
2019-03-30T04:16:40.282Z,99021.73
2019-03-30T04:19:11.336Z,99017.37
2019-03-30T04:21:44.685Z,99026.42
2019-03-30T04:24:14.935Z,99030.78
2019-03-30T04:26:45.401Z,99027.72
2019-03-30T04:29:16.006Z,99029.65
2019-03-30T04:31:46.562Z,99028.41
2019-03-30T04:34:17.510Z,99023.89
2019-03-30T04:36:48.229Z,99033.00
2019-03-30T04:39:18.850Z,99032.63
2019-03-30T04:41:49.293Z,99030.41
2019-03-30T04:44:19.933Z,99027.97
2019-03-30T04:46:50.457Z,99025.53
2019-03-30T04:49:21.082Z,99019.69
2019-03-30T04:51:57.726Z,99024.15
2019-03-30T04:54:24.762Z,99023.94
2019-03-30T04:56:55.405Z,99036.73
2019-03-30T04:59:26.207Z,99031.92
2019-03-30T05:01:57.151Z,99029.14
2019-03-30T05:04:27.614Z,99029.85
2019-03-30T05:06:58.405Z,99035.00
2019-03-30T05:09:29.049Z,99028.61
2019-03-30T05:12:00.719Z,99031.23
2019-03-30T05:14:31.528Z,99035.38
2019-03-30T05:17:02.385Z,99033.98
2019-03-30T05:19:33.704Z,99027.91
2019-03-30T05:22:12.100Z,99036.04
2019-03-30T05:24:36.702Z,99036.52
2019-03-30T05:27:07.362Z,99038.05
2019-03-30T05:29:38.228Z,99042.49
2019-03-30T05:32:08.716Z,99041.50
2019-03-30T05:34:40.224Z,99045.23
2019-03-30T05:37:10.817Z,99041.54
2019-03-30T05:39:41.400Z,99045.83
2019-03-30T05:42:12.140Z,99044.62
2019-03-30T05:44:43.129Z,99043.02
2019-03-30T05:47:14.232Z,99044.91
2019-03-30T05:49:44.912Z,99046.81
2019-03-30T05:52:26.333Z,99043.81
2019-03-30T05:54:48.249Z,99045.92
2019-03-30T05:57:18.938Z,99035.25
2019-03-30T05:59:49.627Z,99042.64
2019-03-30T06:02:20.206Z,99040.70
2019-03-30T06:04:51.155Z,99036.05
2019-03-30T06:07:22.004Z,99036.47
2019-03-30T06:09:52.502Z,99033.75
2019-03-30T06:12:23.495Z,99031.66
2019-03-30T06:14:54.311Z,99032.20
2019-03-30T06:17:25.383Z,99031.67
2019-03-30T06:19:55.928Z,99027.58
2019-03-30T06:22:39.477Z,99029.17
2019-03-30T06:24:59.015Z,99028.07
2019-03-30T06:27:29.452Z,99025.73
2019-03-30T06:30:16.652Z,99022.75
2019-03-30T06:32:48.513Z,99027.16
2019-03-30T06:35:19.293Z,99021.67
2019-03-30T06:37:51.399Z,99023.38
2019-03-30T06:40:21.950Z,99023.18
2019-03-30T06:42:53.229Z,99027.70
2019-03-30T06:45:24.153Z,99024.27
2019-03-30T06:47:54.699Z,99027.91
2019-03-30T06:50:25.341Z,99031.27
2019-03-30T06:52:59.050Z,99032.50
2019-03-30T06:55:29.942Z,99029.23
2019-03-30T06:58:01.148Z,99030.56
2019-03-30T07:00:32.973Z,99038.22
2019-03-30T07:03:05.350Z,99041.97
2019-03-30T07:05:40.422Z,99033.76
2019-03-30T07:08:14.950Z,99026.64
2019-03-30T07:10:46.661Z,99028.42
2019-03-30T07:13:17.505Z,99021.48
2019-03-30T07:15:50.265Z,99013.70
2019-03-30T07:18:21.275Z,99016.42
2019-03-30T07:20:52.744Z,99012.67
2019-03-30T07:23:23.320Z,99007.82
2019-03-30T07:25:54.798Z,99012.02
2019-03-30T07:28:25.397Z,99012.78
2019-03-30T07:30:56.474Z,99007.45
2019-03-30T07:33:27.563Z,99007.64
2019-03-30T07:35:58.895Z,99008.01
2019-03-30T07:38:29.369Z,99010.69
2019-03-30T07:41:00.174Z,99009.28
2019-03-30T07:43:35.247Z,99013.48
2019-03-30T07:46:05.907Z,99017.94
2019-03-30T07:48:36.825Z,99020.75
2019-03-30T07:51:07.453Z,99023.00
2019-03-30T07:53:44.445Z,99031.59
2019-03-30T07:56:14.123Z,99020.53
2019-03-30T07:58:45.244Z,99011.35
2019-03-30T08:01:16.144Z,99016.20
2019-03-30T08:03:46.964Z,99025.78
2019-03-30T08:06:17.720Z,99006.30
2019-03-30T08:08:48.542Z,99011.44
2019-03-30T08:11:19.400Z,99012.08
2019-03-30T08:13:50.137Z,99002.87
2019-03-30T08:16:20.923Z,99007.63
2019-03-30T08:18:52.633Z,99000.88
2019-03-30T08:21:23.618Z,99001.84
2019-03-30T08:23:54.321Z,99000.54
2019-03-30T08:26:24.916Z,99001.20
2019-03-30T08:28:55.965Z,99018.44
2019-03-30T08:31:27.266Z,99023.23
2019-03-30T08:41:03.200Z,99014.98
2019-03-30T08:43:34.057Z,99020.54
2019-03-30T08:46:05.903Z,99011.64
2019-03-30T08:48:36.643Z,99013.13
2019-03-30T08:51:07.473Z,99014.75
2019-03-30T08:53:38.638Z,99007.73
2019-03-30T08:56:09.680Z,99002.77
2019-03-30T08:58:40.639Z,99007.94
2019-03-30T09:01:11.535Z,99011.57
2019-03-30T09:03:42.981Z,99003.25
2019-03-30T09:06:13.412Z,99004.74
2019-03-30T09:08:43.971Z,99011.11
2019-03-30T09:11:14.862Z,99006.80
2019-03-30T09:13:45.534Z,99015.59
2019-03-30T09:16:16.585Z,99011.47
2019-03-30T09:18:47.326Z,99022.16
2019-03-30T09:25:02.110Z,99038.13
2019-03-30T09:27:33.169Z,99035.07
2019-03-30T09:30:05.755Z,99042.35
2019-03-30T09:32:36.704Z,99034.31
2019-03-30T09:35:08.196Z,99042.35
2019-03-30T09:37:38.842Z,99040.67
2019-03-30T09:40:10.023Z,99041.80
2019-03-30T09:42:43.282Z,99041.78
2019-03-30T09:45:14.776Z,99041.23
2019-03-30T09:47:45.641Z,99046.27
2019-03-30T09:50:16.500Z,99044.95
2019-03-30T09:52:47.623Z,99039.27
2019-03-30T09:55:18.438Z,99045.45
2019-03-30T09:57:49.421Z,99052.48
2019-03-30T10:00:20.210Z,99046.47
2019-03-30T10:02:50.968Z,99047.59
2019-03-30T10:05:22.214Z,99054.24
2019-03-30T10:07:52.931Z,99052.67
2019-03-30T10:10:23.638Z,99056.98
2019-03-30T10:12:54.354Z,99055.73
2019-03-30T10:15:27.742Z,99059.94
2019-03-30T10:17:58.652Z,99064.08
2019-03-30T10:20:29.336Z,99066.52
2019-03-30T10:23:00.147Z,99068.67
2019-03-30T10:25:31.080Z,99061.45
2019-03-30T10:28:02.082Z,99057.71
2019-03-30T10:30:32.945Z,99065.09
2019-03-30T10:33:04.833Z,99063.41
2019-03-30T10:35:35.486Z,99060.98
2019-03-30T10:38:06.333Z,99061.08
2019-03-30T10:40:36.806Z,99059.22
2019-03-30T10:43:07.669Z,99071.95
2019-03-30T10:45:38.478Z,99072.22
2019-03-30T10:48:09.047Z,99073.05
2019-03-30T10:50:40.452Z,99076.63
2019-03-30T10:53:11.642Z,99067.45
2019-03-30T10:55:42.454Z,99074.38
2019-03-30T10:58:13.416Z,99072.02
2019-03-30T11:00:44.377Z,99069.42
2019-03-30T11:03:15.479Z,99071.56
2019-03-30T11:15:20.605Z,99074.92
2019-03-30T11:17:51.417Z,99077.05
2019-03-30T11:20:22.378Z,99067.78
2019-03-30T11:22:53.207Z,99066.20
2019-03-30T11:25:24.154Z,99068.38
2019-03-30T11:27:54.618Z,99060.96
2019-03-30T11:30:25.103Z,99062.55
2019-03-30T11:32:56.189Z,99053.18
2019-03-30T11:35:27.829Z,99056.97
2019-03-30T11:37:59.758Z,99060.09
2019-03-30T11:40:30.569Z,99063.48
2019-03-30T11:43:01.370Z,99059.81
2019-03-30T11:45:32.376Z,99064.29
2019-03-30T11:48:03.045Z,99070.08
2019-03-30T11:50:33.632Z,99064.55
2019-03-30T11:53:04.699Z,99063.87
2019-03-30T11:55:36.156Z,99068.84
2019-03-30T11:58:12.737Z,99057.05
2019-03-30T12:00:43.675Z,99062.03
2019-03-30T12:03:14.489Z,99064.88
2019-03-30T12:05:45.336Z,99077.14
2019-03-30T12:08:16.050Z,99072.30
2019-03-30T12:10:46.786Z,99068.37
2019-03-30T12:13:18.011Z,99073.39
2019-03-30T12:15:48.568Z,99074.42
2019-03-30T12:18:19.581Z,99077.00
2019-03-30T12:20:50.617Z,99079.25
2019-03-30T12:23:21.891Z,99079.79
2019-03-30T12:25:52.912Z,99081.61
2019-03-30T12:28:24.482Z,99078.62
2019-03-30T12:30:55.461Z,99082.06
2019-03-30T12:33:26.259Z,99084.77
2019-03-30T12:35:57.049Z,99085.20
2019-03-30T12:38:27.768Z,99074.62
2019-03-30T12:40:58.320Z,99082.22
2019-03-30T12:45:21.716Z,99069.70
2019-03-30T12:47:52.378Z,99072.22
2019-03-30T12:50:22.984Z,99078.53
2019-03-30T12:52:53.842Z,99090.33
2019-03-30T12:55:24.527Z,99091.94
2019-03-30T12:57:55.206Z,99084.94
2019-03-30T13:00:25.561Z,99092.09
2019-03-30T13:02:56.191Z,99092.70
2019-03-30T13:05:27.126Z,99092.45
2019-03-30T13:07:57.679Z,99089.77
2019-03-30T13:10:28.450Z,99083.62
2019-03-30T13:12:59.286Z,99092.45
2019-03-30T13:15:30.298Z,99084.87
2019-03-30T13:18:01.133Z,99099.03
2019-03-30T13:20:31.983Z,99089.11
2019-03-30T13:23:02.699Z,99092.20
2019-03-30T13:25:35.929Z,99088.98
2019-03-30T13:28:07.003Z,99081.63
2019-03-30T13:30:38.054Z,99083.73
2019-03-30T13:33:08.625Z,99086.95
2019-03-30T13:35:39.712Z,99085.69
2019-03-30T13:38:10.615Z,99082.35
2019-03-30T13:40:41.219Z,99088.46
2019-03-30T13:43:11.603Z,99088.69
2019-03-30T13:45:42.228Z,99093.42
2019-03-30T13:48:13.224Z,99091.63
2019-03-30T13:50:44.165Z,99092.63
2019-03-30T13:53:15.104Z,99091.66
2019-03-30T13:55:45.730Z,99085.49
2019-03-30T13:58:16.693Z,99084.64
2019-03-30T14:00:48.458Z,99078.91
2019-03-30T14:03:19.152Z,99092.46
2019-03-30T14:05:50.040Z,99084.63
2019-03-30T14:08:20.567Z,99089.58
2019-03-30T14:10:51.444Z,99090.01
2019-03-30T14:13:22.081Z,99094.55
2019-03-30T14:15:52.895Z,99095.71
2019-03-30T14:18:23.334Z,99102.01
2019-03-30T14:20:53.858Z,99100.52
2019-03-30T14:23:24.867Z,99100.77
2019-03-30T14:25:55.855Z,99100.42
2019-03-30T14:28:26.548Z,99096.63
2019-03-30T14:30:57.388Z,99095.17
2019-03-30T14:33:28.289Z,99095.93
2019-03-30T14:35:58.731Z,99106.00
2019-03-30T14:38:31.185Z,99098.77
2019-03-30T14:41:03.947Z,99104.86
2019-03-30T14:43:35.018Z,99105.86
2019-03-30T14:48:36.116Z,99107.59
2019-03-30T14:51:07.272Z,99107.59
2019-03-30T14:53:38.205Z,99110.88
2019-03-30T14:56:09.077Z,99118.16
2019-03-30T14:58:40.450Z,99106.70
2019-03-30T15:01:12.062Z,99110.44
2019-03-30T15:03:42.952Z,99116.80
2019-03-30T15:06:13.304Z,99123.38
2019-03-30T15:08:44.573Z,99128.21
2019-03-30T15:11:15.951Z,99129.63
2019-03-30T15:13:48.392Z,99126.44
2019-03-30T15:16:19.281Z,99131.13
2019-03-30T15:18:49.865Z,99139.93
2019-03-30T15:21:20.868Z,99138.23
2019-03-30T15:23:51.741Z,99142.70
2019-03-30T15:26:22.460Z,99146.73
2019-03-30T15:28:53.033Z,99145.68
2019-03-30T15:31:23.635Z,99150.19
2019-03-30T15:33:54.719Z,99147.26
2019-03-30T15:36:25.406Z,99152.88
2019-03-30T15:38:56.262Z,99151.82
2019-03-30T15:41:27.006Z,99153.39
2019-03-30T15:43:57.567Z,99159.00
2019-03-30T15:46:28.558Z,99164.12
2019-03-30T15:48:59.534Z,99166.70
2019-03-30T15:51:30.165Z,99170.05
2019-03-30T15:54:01.383Z,99174.89
2019-03-30T15:56:32.269Z,99181.39
2019-03-30T15:59:02.950Z,99180.44
2019-03-30T16:01:34.260Z,99191.07
2019-03-30T16:04:05.185Z,99191.72
2019-03-30T16:06:35.937Z,99185.82
2019-03-30T16:09:07.786Z,99197.39
2019-03-30T16:11:39.159Z,99194.64
2019-03-30T16:14:09.970Z,99197.49
2019-03-30T16:16:40.587Z,99207.30
2019-03-30T16:19:13.535Z,99212.39
2019-03-30T16:21:44.271Z,99212.26
2019-03-30T16:24:19.047Z,99213.41
2019-03-30T16:26:50.341Z,99222.64
2019-03-30T16:29:21.565Z,99227.58
2019-03-30T16:31:52.764Z,99227.06
2019-03-30T16:34:24.243Z,99237.45
2019-03-30T16:36:55.185Z,99234.35
2019-03-30T16:39:25.921Z,99240.14
2019-03-30T16:41:56.476Z,99253.45
2019-03-30T16:44:27.280Z,99249.80
2019-03-30T16:46:58.145Z,99251.70
2019-03-30T16:49:28.689Z,99261.12
2019-03-30T16:51:59.658Z,99265.69
2019-03-30T16:54:31.188Z,99260.30
2019-03-30T16:57:01.971Z,99268.48
2019-03-30T16:59:33.044Z,99268.70
2019-03-30T17:02:03.797Z,99271.50
2019-03-30T17:04:35.531Z,99273.33
2019-03-30T17:07:06.006Z,99270.56
2019-03-30T17:09:36.900Z,99272.13
2019-03-30T17:12:08.137Z,99276.86
2019-03-30T17:14:43.764Z,99270.73
2019-03-30T17:17:14.461Z,99270.44
2019-03-30T17:19:45.766Z,99275.66
2019-03-30T17:22:16.420Z,99283.33
2019-03-30T17:24:47.695Z,99293.17
2019-03-30T17:27:18.427Z,99291.31
2019-03-30T17:29:49.472Z,99288.18
2019-03-30T17:32:20.243Z,99290.56
2019-03-30T17:34:51.434Z,99282.63
2019-03-30T17:37:22.508Z,99280.78
2019-03-30T17:39:53.022Z,99287.38
2019-03-30T17:42:24.084Z,99293.39
2019-03-30T17:44:54.904Z,99292.09
2019-03-30T17:47:25.605Z,99291.68
2019-03-30T17:49:56.472Z,99291.55
2019-03-30T17:52:26.962Z,99291.62
2019-03-30T17:54:57.665Z,99289.52
2019-03-30T17:57:28.124Z,99292.13
2019-03-30T17:59:58.850Z,99299.52
2019-03-30T18:02:30.406Z,99289.77
2019-03-30T18:05:01.858Z,99299.59
2019-03-30T18:07:33.021Z,99292.75
2019-03-30T18:10:04.227Z,99294.13
2019-03-30T18:12:37.596Z,99300.28
2019-03-30T18:15:08.759Z,99288.84
2019-03-30T18:17:39.960Z,99288.62
2019-03-30T18:20:10.582Z,99284.02
2019-03-30T18:22:41.415Z,99279.88
2019-03-30T18:25:13.101Z,99276.95
2019-03-30T18:27:45.129Z,99269.81
2019-03-30T18:30:15.710Z,99273.62
2019-03-30T18:32:47.137Z,99269.16
2019-03-30T18:35:18.179Z,99269.45
2019-03-30T18:37:49.226Z,99272.10
2019-03-30T18:40:30.179Z,99272.14
2019-03-30T18:43:02.613Z,99272.98
2019-03-30T18:45:34.288Z,99264.80
2019-03-30T18:48:12.753Z,99269.87
2019-03-30T18:50:43.795Z,99270.17
2019-03-30T18:53:18.503Z,99271.41
2019-03-30T18:55:49.761Z,99268.38
2019-03-30T18:58:21.054Z,99266.91
2019-03-30T19:00:51.549Z,99266.31
2019-03-30T19:03:22.685Z,99272.13
2019-03-30T19:05:53.304Z,99274.59
2019-03-30T19:08:24.624Z,99266.95
2019-03-30T19:10:55.459Z,99265.83
2019-03-30T19:13:26.305Z,99266.61
2019-03-30T19:15:56.971Z,99269.06
2019-03-30T19:18:27.530Z,99266.83
2019-03-30T19:20:58.500Z,99270.11
2019-03-30T19:23:29.333Z,99260.86
2019-03-30T19:26:00.077Z,99258.54
2019-03-30T19:28:31.024Z,99246.59
2019-03-30T19:31:01.748Z,99240.42
2019-03-30T19:33:32.828Z,99239.68
2019-03-30T19:36:04.713Z,99233.00
2019-03-30T19:38:36.218Z,99234.02
2019-03-30T19:41:06.925Z,99232.23
2019-03-30T19:43:41.439Z,99237.67
2019-03-30T19:46:12.649Z,99233.88
2019-03-30T19:48:43.828Z,99228.98
2019-03-30T19:51:15.003Z,99222.68
2019-03-30T19:53:46.826Z,99223.25
2019-03-30T19:56:17.742Z,99226.73
2019-03-30T19:58:48.819Z,99222.76
2019-03-30T20:01:19.900Z,99226.12
2019-03-30T20:03:51.610Z,99229.23
2019-03-30T20:06:22.639Z,99218.05
2019-03-30T20:08:53.746Z,99220.59
2019-03-30T20:11:24.377Z,99223.37
2019-03-30T20:13:55.357Z,99225.99
2019-03-30T20:16:26.389Z,99226.45
2019-03-30T20:19:11.548Z,99230.75
2019-03-30T20:21:31.429Z,99220.19
2019-03-30T20:24:02.137Z,99219.16
2019-03-30T20:26:32.715Z,99224.32
2019-03-30T20:29:04.469Z,99223.78
2019-03-30T20:31:35.553Z,99219.36
2019-03-30T20:34:06.296Z,99226.40
2019-03-30T20:36:37.245Z,99221.61
2019-03-30T20:39:08.492Z,99216.45
2019-03-30T20:41:39.812Z,99211.70
2019-03-30T20:44:11.397Z,99215.89
2019-03-30T20:46:43.727Z,99214.83
2019-03-30T20:49:15.157Z,99208.56
2019-03-30T20:51:46.301Z,99212.73
2019-03-30T20:54:17.867Z,99213.47
2019-03-30T20:56:48.641Z,99213.72
2019-03-30T20:59:20.202Z,99218.21
2019-03-30T21:01:54.422Z,99212.89
2019-03-30T21:04:26.053Z,99204.09
2019-03-30T21:06:57.110Z,99205.12
2019-03-30T21:09:28.576Z,99205.20
2019-03-30T21:11:59.618Z,99201.23
2019-03-30T21:14:30.570Z,99206.91
2019-03-30T21:17:04.623Z,99208.09
2019-03-30T21:19:35.477Z,99203.78
2019-03-30T21:22:06.253Z,99196.09
2019-03-30T21:24:37.140Z,99202.91
2019-03-30T21:27:07.596Z,99190.15
2019-03-30T21:29:38.839Z,99193.66
2019-03-30T21:32:09.879Z,99189.22
2019-03-30T21:34:40.875Z,99193.09
2019-03-30T21:37:11.453Z,99186.52
2019-03-30T21:39:42.575Z,99181.82
2019-03-30T21:42:13.327Z,99185.37
2019-03-30T21:44:43.925Z,99185.91
2019-03-30T21:47:14.788Z,99191.45
2019-03-30T21:49:45.682Z,99193.59
2019-03-30T21:52:16.354Z,99192.36
2019-03-30T21:54:46.783Z,99200.29
2019-03-30T21:57:17.557Z,99190.02
2019-03-30T21:59:48.233Z,99191.11
2019-03-30T22:02:18.913Z,99197.50
2019-03-30T22:04:49.677Z,99196.39
2019-03-30T22:07:20.367Z,99192.72
2019-03-30T22:09:51.046Z,99191.82
2019-03-30T22:12:22.095Z,99181.00
2019-03-30T22:14:52.462Z,99184.03
2019-03-30T22:17:23.903Z,99183.89
2019-03-30T22:19:54.550Z,99173.98
2019-03-30T22:22:25.012Z,99182.44
2019-03-30T22:24:55.808Z,99181.23
2019-03-30T22:29:44.838Z,99169.07
2019-03-30T22:32:15.674Z,99167.47
2019-03-30T22:34:47.148Z,99169.63
2019-03-30T22:37:17.504Z,99172.25
2019-03-30T22:39:48.382Z,99176.98
2019-03-30T22:42:19.866Z,99176.38
2019-03-30T22:44:50.644Z,99181.35
2019-03-30T22:47:20.959Z,99179.89
2019-03-30T22:49:51.687Z,99178.87
2019-03-30T22:52:22.313Z,99186.87
2019-03-30T22:54:53.020Z,99182.01
2019-03-30T22:57:23.772Z,99176.03
2019-03-30T22:59:54.458Z,99181.34
2019-03-30T23:02:25.675Z,99183.02
2019-03-30T23:04:56.029Z,99179.36
2019-03-30T23:07:26.550Z,99174.73
2019-03-30T23:09:57.194Z,99174.81
2019-03-30T23:12:27.696Z,99177.98
2019-03-30T23:14:58.398Z,99169.00
2019-03-30T23:17:29.107Z,99169.92
2019-03-30T23:19:59.764Z,99167.95
2019-03-30T23:22:30.899Z,99164.55
2019-03-30T23:25:01.770Z,99170.79
2019-03-30T23:27:32.395Z,99160.26
2019-03-30T23:30:03.251Z,99154.66
2019-03-30T23:32:34.123Z,99156.42
2019-03-30T23:35:05.882Z,99152.49
2019-03-30T23:37:36.691Z,99158.44
2019-03-30T23:40:08.425Z,99164.19
2019-03-30T23:42:39.461Z,99161.76
2019-03-30T23:45:10.498Z,99158.14
2019-03-30T23:47:41.152Z,99155.56
2019-03-30T23:50:12.005Z,99154.25
2019-03-30T23:52:42.729Z,99147.87
2019-03-30T23:55:13.819Z,99142.72
2019-03-30T23:57:44.736Z,99151.94
